sensor_id;sensor_type;location;lat;lon;timestamp;P1;durP1;ratioP1;P2;durP2;ratioP2
21272;SDS011;36726;52.328;10.552;2022-09-09T00:01:20;2.42;;;2.20;;
21272;SDS011;36726;52.328;10.552;2022-09-09T00:03:54;2.63;;;1.90;;
21272;SDS011;36726;52.328;10.552;2022-09-09T00:06:30;2.50;;;1.80;;
21272;SDS011;36726;52.328;10.552;2022-09-09T00:09:08;3.03;;;2.10;;
21272;SDS011;36726;52.328;10.552;2022-09-09T00:17:18;2.33;;;2.10;;
21272;SDS011;36726;52.328;10.552;2022-09-09T00:20:01;3.47;;;1.80;;
21272;SDS011;36726;52.328;10.552;2022-09-09T00:22:38;2.00;;;1.80;;
21272;SDS011;36726;52.328;10.552;2022-09-09T00:25:11;2.20;;;1.80;;
21272;SDS011;36726;52.328;10.552;2022-09-09T00:27:47;2.28;;;1.58;;
21272;SDS011;36726;52.328;10.552;2022-09-09T00:30:17;5.05;;;2.00;;
21272;SDS011;36726;52.328;10.552;2022-09-09T00:32:46;2.17;;;1.75;;
21272;SDS011;36726;52.328;10.552;2022-09-09T00:35:24;2.55;;;1.60;;
21272;SDS011;36726;52.328;10.552;2022-09-09T00:38:10;2.15;;;1.58;;
21272;SDS011;36726;52.328;10.552;2022-09-09T00:40:41;1.70;;;1.52;;
21272;SDS011;36726;52.328;10.552;2022-09-09T00:54:17;1.60;;;1.50;;
21272;SDS011;36726;52.328;10.552;2022-09-09T00:59:40;2.25;;;1.55;;
21272;SDS011;36726;52.328;10.552;2022-09-09T01:02:38;1.52;;;1.40;;
21272;SDS011;36726;52.328;10.552;2022-09-09T01:08:19;1.55;;;1.40;;
21272;SDS011;36726;52.328;10.552;2022-09-09T01:11:07;1.60;;;1.40;;
21272;SDS011;36726;52.328;10.552;2022-09-09T01:13:42;2.90;;;1.48;;
21272;SDS011;36726;52.328;10.552;2022-09-09T01:16:14;1.42;;;1.23;;
21272;SDS011;36726;52.328;10.552;2022-09-09T01:18:43;4.30;;;1.40;;
21272;SDS011;36726;52.328;10.552;2022-09-09T01:24:22;2.22;;;1.40;;
21272;SDS011;36726;52.328;10.552;2022-09-09T01:27:11;1.33;;;1.23;;
21272;SDS011;36726;52.328;10.552;2022-09-09T01:29:41;1.48;;;1.38;;
21272;SDS011;36726;52.328;10.552;2022-09-09T01:35:17;1.98;;;1.40;;
21272;SDS011;36726;52.328;10.552;2022-09-09T01:37:57;1.52;;;1.10;;
21272;SDS011;36726;52.328;10.552;2022-09-09T01:40:24;1.23;;;1.02;;
21272;SDS011;36726;52.328;10.552;2022-09-09T01:42:53;2.65;;;1.25;;
21272;SDS011;36726;52.328;10.552;2022-09-09T01:45:20;1.85;;;1.27;;
21272;SDS011;36726;52.328;10.552;2022-09-09T01:47:48;1.63;;;1.25;;
21272;SDS011;36726;52.328;10.552;2022-09-09T01:50:19;1.20;;;1.10;;
21272;SDS011;36726;52.328;10.552;2022-09-09T01:52:48;1.00;;;0.80;;
21272;SDS011;36726;52.328;10.552;2022-09-09T01:55:23;1.35;;;1.10;;
21272;SDS011;36726;52.328;10.552;2022-09-09T01:58:11;2.55;;;1.13;;
21272;SDS011;36726;52.328;10.552;2022-09-09T02:00:52;1.63;;;1.17;;
21272;SDS011;36726;52.328;10.552;2022-09-09T02:03:28;1.48;;;0.82;;
21272;SDS011;36726;52.328;10.552;2022-09-09T02:09:00;2.75;;;0.90;;
21272;SDS011;36726;52.328;10.552;2022-09-09T02:11:31;2.47;;;1.00;;
21272;SDS011;36726;52.328;10.552;2022-09-09T02:14:07;1.30;;;1.02;;
21272;SDS011;36726;52.328;10.552;2022-09-09T02:16:47;1.30;;;1.10;;
21272;SDS011;36726;52.328;10.552;2022-09-09T02:19:25;4.28;;;0.90;;
21272;SDS011;36726;52.328;10.552;2022-09-09T02:22:09;1.08;;;0.75;;
21272;SDS011;36726;52.328;10.552;2022-09-09T02:24:37;1.15;;;0.88;;
21272;SDS011;36726;52.328;10.552;2022-09-09T02:27:17;1.27;;;0.98;;
21272;SDS011;36726;52.328;10.552;2022-09-09T02:29:45;0.80;;;0.70;;
21272;SDS011;36726;52.328;10.552;2022-09-09T02:32:15;1.25;;;1.10;;
21272;SDS011;36726;52.328;10.552;2022-09-09T02:34:47;1.20;;;1.10;;
21272;SDS011;36726;52.328;10.552;2022-09-09T02:37:18;1.73;;;0.80;;
21272;SDS011;36726;52.328;10.552;2022-09-09T02:39:50;1.70;;;0.82;;
21272;SDS011;36726;52.328;10.552;2022-09-09T02:42:19;0.90;;;0.80;;
21272;SDS011;36726;52.328;10.552;2022-09-09T02:44:46;0.88;;;0.70;;
21272;SDS011;36726;52.328;10.552;2022-09-09T02:52:20;0.70;;;0.70;;
21272;SDS011;36726;52.328;10.552;2022-09-09T02:55:03;0.60;;;0.57;;
21272;SDS011;36726;52.328;10.552;2022-09-09T02:57:36;0.70;;;0.63;;
21272;SDS011;36726;52.328;10.552;2022-09-09T03:00:05;1.70;;;0.90;;
21272;SDS011;36726;52.328;10.552;2022-09-09T03:02:33;1.80;;;0.82;;
21272;SDS011;36726;52.328;10.552;2022-09-09T03:05:04;1.67;;;0.75;;
21272;SDS011;36726;52.328;10.552;2022-09-09T03:07:32;0.65;;;0.65;;
21272;SDS011;36726;52.328;10.552;2022-09-09T03:10:00;1.63;;;0.70;;
21272;SDS011;36726;52.328;10.552;2022-09-09T03:12:26;1.02;;;0.60;;
21272;SDS011;36726;52.328;10.552;2022-09-09T03:14:53;1.25;;;0.90;;
21272;SDS011;36726;52.328;10.552;2022-09-09T03:17:20;1.60;;;0.70;;
21272;SDS011;36726;52.328;10.552;2022-09-09T03:19:51;1.30;;;0.75;;
21272;SDS011;36726;52.328;10.552;2022-09-09T03:22:20;1.08;;;0.80;;
21272;SDS011;36726;52.328;10.552;2022-09-09T03:24:47;3.45;;;1.02;;
21272;SDS011;36726;52.328;10.552;2022-09-09T03:27:14;1.85;;;0.80;;
21272;SDS011;36726;52.328;10.552;2022-09-09T03:29:41;1.25;;;0.90;;
21272;SDS011;36726;52.328;10.552;2022-09-09T03:32:12;1.48;;;0.88;;
21272;SDS011;36726;52.328;10.552;2022-09-09T03:34:39;1.90;;;1.10;;
21272;SDS011;36726;52.328;10.552;2022-09-09T03:37:09;2.60;;;1.10;;
21272;SDS011;36726;52.328;10.552;2022-09-09T03:39:36;2.90;;;0.88;;
21272;SDS011;36726;52.328;10.552;2022-09-09T03:42:03;1.27;;;0.80;;
21272;SDS011;36726;52.328;10.552;2022-09-09T03:44:30;4.28;;;1.10;;
21272;SDS011;36726;52.328;10.552;2022-09-09T03:46:57;1.42;;;0.85;;
21272;SDS011;36726;52.328;10.552;2022-09-09T03:49:26;8.35;;;1.10;;
21272;SDS011;36726;52.328;10.552;2022-09-09T03:51:57;3.95;;;0.95;;
21272;SDS011;36726;52.328;10.552;2022-09-09T03:54:25;1.67;;;1.02;;
21272;SDS011;36726;52.328;10.552;2022-09-09T03:56:51;2.42;;;0.98;;
21272;SDS011;36726;52.328;10.552;2022-09-09T03:59:19;2.22;;;0.88;;
21272;SDS011;36726;52.328;10.552;2022-09-09T04:01:47;2.08;;;1.13;;
21272;SDS011;36726;52.328;10.552;2022-09-09T04:04:13;1.05;;;0.95;;
21272;SDS011;36726;52.328;10.552;2022-09-09T04:06:40;3.10;;;0.90;;
21272;SDS011;36726;52.328;10.552;2022-09-09T04:09:07;2.40;;;1.02;;
21272;SDS011;36726;52.328;10.552;2022-09-09T04:11:34;2.78;;;0.90;;
21272;SDS011;36726;52.328;10.552;2022-09-09T04:14:00;1.90;;;0.93;;
21272;SDS011;36726;52.328;10.552;2022-09-09T04:16:29;1.80;;;0.98;;
21272;SDS011;36726;52.328;10.552;2022-09-09T04:18:55;2.25;;;0.98;;
21272;SDS011;36726;52.328;10.552;2022-09-09T04:21:22;2.58;;;0.80;;
21272;SDS011;36726;52.328;10.552;2022-09-09T04:23:49;1.38;;;0.95;;
21272;SDS011;36726;52.328;10.552;2022-09-09T04:26:17;3.28;;;1.13;;
21272;SDS011;36726;52.328;10.552;2022-09-09T04:28:44;1.65;;;1.00;;
21272;SDS011;36726;52.328;10.552;2022-09-09T04:31:17;1.55;;;0.77;;
21272;SDS011;36726;52.328;10.552;2022-09-09T04:33:48;3.90;;;1.10;;
21272;SDS011;36726;52.328;10.552;2022-09-09T04:36:15;4.35;;;1.00;;
21272;SDS011;36726;52.328;10.552;2022-09-09T04:38:42;1.65;;;0.85;;
21272;SDS011;36726;52.328;10.552;2022-09-09T04:41:10;4.72;;;1.10;;
21272;SDS011;36726;52.328;10.552;2022-09-09T04:43:39;1.25;;;0.95;;
21272;SDS011;36726;52.328;10.552;2022-09-09T04:46:07;1.83;;;1.02;;
21272;SDS011;36726;52.328;10.552;2022-09-09T04:48:34;1.85;;;1.02;;
21272;SDS011;36726;52.328;10.552;2022-09-09T04:51:04;3.97;;;1.08;;
21272;SDS011;36726;52.328;10.552;2022-09-09T04:53:33;1.33;;;0.82;;
21272;SDS011;36726;52.328;10.552;2022-09-09T04:56:05;2.30;;;1.10;;
21272;SDS011;36726;52.328;10.552;2022-09-09T04:58:41;1.10;;;0.90;;
21272;SDS011;36726;52.328;10.552;2022-09-09T05:01:14;4.28;;;0.90;;
21272;SDS011;36726;52.328;10.552;2022-09-09T05:03:44;1.27;;;0.90;;
21272;SDS011;36726;52.328;10.552;2022-09-09T05:06:18;2.05;;;1.00;;
21272;SDS011;36726;52.328;10.552;2022-09-09T05:08:48;2.17;;;1.13;;
21272;SDS011;36726;52.328;10.552;2022-09-09T05:11:23;3.25;;;1.13;;
21272;SDS011;36726;52.328;10.552;2022-09-09T05:13:58;2.72;;;1.15;;
21272;SDS011;36726;52.328;10.552;2022-09-09T05:16:25;1.75;;;0.88;;
21272;SDS011;36726;52.328;10.552;2022-09-09T05:18:53;1.88;;;0.88;;
21272;SDS011;36726;52.328;10.552;2022-09-09T05:21:20;2.33;;;1.05;;
21272;SDS011;36726;52.328;10.552;2022-09-09T05:23:49;2.17;;;1.08;;
21272;SDS011;36726;52.328;10.552;2022-09-09T05:26:19;2.03;;;1.08;;
21272;SDS011;36726;52.328;10.552;2022-09-09T05:28:49;3.40;;;1.45;;
21272;SDS011;36726;52.328;10.552;2022-09-09T05:31:16;2.70;;;1.20;;
21272;SDS011;36726;52.328;10.552;2022-09-09T05:33:46;2.03;;;1.20;;
21272;SDS011;36726;52.328;10.552;2022-09-09T05:36:19;1.20;;;1.05;;
21272;SDS011;36726;52.328;10.552;2022-09-09T05:38:50;3.38;;;1.10;;
21272;SDS011;36726;52.328;10.552;2022-09-09T05:41:18;2.17;;;1.10;;
21272;SDS011;36726;52.328;10.552;2022-09-09T05:43:46;2.53;;;0.90;;
21272;SDS011;36726;52.328;10.552;2022-09-09T05:46:17;1.30;;;1.20;;
21272;SDS011;36726;52.328;10.552;2022-09-09T05:48:48;3.22;;;1.42;;
21272;SDS011;36726;52.328;10.552;2022-09-09T05:51:21;1.75;;;1.27;;
21272;SDS011;36726;52.328;10.552;2022-09-09T05:53:50;2.05;;;1.08;;
21272;SDS011;36726;52.328;10.552;2022-09-09T05:56:19;2.03;;;1.10;;
21272;SDS011;36726;52.328;10.552;2022-09-09T05:58:48;1.35;;;1.00;;
21272;SDS011;36726;52.328;10.552;2022-09-09T06:01:18;1.42;;;0.90;;
21272;SDS011;36726;52.328;10.552;2022-09-09T06:03:47;1.58;;;0.90;;
21272;SDS011;36726;52.328;10.552;2022-09-09T06:06:16;3.92;;;1.20;;
21272;SDS011;36726;52.328;10.552;2022-09-09T06:08:44;1.85;;;1.13;;
21272;SDS011;36726;52.328;10.552;2022-09-09T06:13:41;1.73;;;0.93;;
21272;SDS011;36726;52.328;10.552;2022-09-09T06:16:12;3.78;;;1.10;;
21272;SDS011;36726;52.328;10.552;2022-09-09T06:18:41;4.25;;;1.42;;
21272;SDS011;36726;52.328;10.552;2022-09-09T06:21:10;1.45;;;1.13;;
21272;SDS011;36726;52.328;10.552;2022-09-09T06:23:41;3.88;;;1.33;;
21272;SDS011;36726;52.328;10.552;2022-09-09T06:26:16;2.38;;;1.20;;
21272;SDS011;36726;52.328;10.552;2022-09-09T06:28:45;2.05;;;1.00;;
21272;SDS011;36726;52.328;10.552;2022-09-09T06:31:14;3.90;;;1.15;;
21272;SDS011;36726;52.328;10.552;2022-09-09T06:33:56;2.35;;;1.20;;
21272;SDS011;36726;52.328;10.552;2022-09-09T06:36:25;1.83;;;1.30;;
21272;SDS011;36726;52.328;10.552;2022-09-09T06:39:03;1.33;;;1.00;;
21272;SDS011;36726;52.328;10.552;2022-09-09T06:41:34;1.60;;;1.02;;
21272;SDS011;36726;52.328;10.552;2022-09-09T06:44:02;2.83;;;1.02;;
21272;SDS011;36726;52.328;10.552;2022-09-09T06:46:37;1.10;;;0.90;;
21272;SDS011;36726;52.328;10.552;2022-09-09T06:49:04;2.13;;;1.15;;
21272;SDS011;36726;52.328;10.552;2022-09-09T06:51:32;1.27;;;0.90;;
21272;SDS011;36726;52.328;10.552;2022-09-09T06:54:02;2.92;;;0.90;;
21272;SDS011;36726;52.328;10.552;2022-09-09T06:58:57;2.45;;;1.20;;
21272;SDS011;36726;52.328;10.552;2022-09-09T07:01:30;1.98;;;1.27;;
21272;SDS011;36726;52.328;10.552;2022-09-09T07:04:01;2.45;;;1.00;;
21272;SDS011;36726;52.328;10.552;2022-09-09T07:06:34;4.28;;;1.23;;
21272;SDS011;36726;52.328;10.552;2022-09-09T07:09:07;2.92;;;1.15;;
21272;SDS011;36726;52.328;10.552;2022-09-09T07:11:41;2.17;;;1.10;;
21272;SDS011;36726;52.328;10.552;2022-09-09T07:14:09;1.92;;;1.23;;
21272;SDS011;36726;52.328;10.552;2022-09-09T07:16:43;2.75;;;1.35;;
21272;SDS011;36726;52.328;10.552;2022-09-09T07:19:12;2.15;;;1.05;;
21272;SDS011;36726;52.328;10.552;2022-09-09T07:21:41;3.17;;;1.10;;
21272;SDS011;36726;52.328;10.552;2022-09-09T07:24:09;1.63;;;1.02;;
21272;SDS011;36726;52.328;10.552;2022-09-09T07:26:39;5.78;;;1.40;;
21272;SDS011;36726;52.328;10.552;2022-09-09T07:29:06;1.65;;;1.10;;
21272;SDS011;36726;52.328;10.552;2022-09-09T07:31:34;1.08;;;0.98;;
21272;SDS011;36726;52.328;10.552;2022-09-09T07:34:06;1.20;;;1.00;;
21272;SDS011;36726;52.328;10.552;2022-09-09T07:36:34;3.25;;;1.30;;
21272;SDS011;36726;52.328;10.552;2022-09-09T07:39:07;2.47;;;1.20;;
21272;SDS011;36726;52.328;10.552;2022-09-09T07:41:37;2.78;;;1.50;;
21272;SDS011;36726;52.328;10.552;2022-09-09T07:44:10;1.70;;;0.77;;
21272;SDS011;36726;52.328;10.552;2022-09-09T07:46:44;2.53;;;1.05;;
21272;SDS011;36726;52.328;10.552;2022-09-09T07:49:16;2.83;;;1.02;;
21272;SDS011;36726;52.328;10.552;2022-09-09T07:51:51;2.72;;;0.93;;
21272;SDS011;36726;52.328;10.552;2022-09-09T07:54:18;2.92;;;1.17;;
21272;SDS011;36726;52.328;10.552;2022-09-09T07:56:48;2.95;;;1.10;;
21272;SDS011;36726;52.328;10.552;2022-09-09T07:59:17;2.75;;;1.40;;
21272;SDS011;36726;52.328;10.552;2022-09-09T08:01:51;3.05;;;1.50;;
21272;SDS011;36726;52.328;10.552;2022-09-09T08:04:24;3.33;;;1.55;;
21272;SDS011;36726;52.328;10.552;2022-09-09T08:06:53;1.83;;;1.25;;
21272;SDS011;36726;52.328;10.552;2022-09-09T08:09:25;3.08;;;1.30;;
21272;SDS011;36726;52.328;10.552;2022-09-09T08:12:05;2.13;;;0.77;;
21272;SDS011;36726;52.328;10.552;2022-09-09T08:14:34;2.25;;;0.90;;
21272;SDS011;36726;52.328;10.552;2022-09-09T08:17:01;1.13;;;0.93;;
21272;SDS011;36726;52.328;10.552;2022-09-09T08:19:30;5.13;;;1.00;;
21272;SDS011;36726;52.328;10.552;2022-09-09T08:22:00;2.35;;;0.90;;
21272;SDS011;36726;52.328;10.552;2022-09-09T08:24:29;1.58;;;0.70;;
21272;SDS011;36726;52.328;10.552;2022-09-09T08:26:55;2.30;;;0.80;;
21272;SDS011;36726;52.328;10.552;2022-09-09T08:29:23;1.25;;;0.75;;
21272;SDS011;36726;52.328;10.552;2022-09-09T08:31:52;1.52;;;0.80;;
21272;SDS011;36726;52.328;10.552;2022-09-09T08:34:21;3.08;;;0.95;;
21272;SDS011;36726;52.328;10.552;2022-09-09T08:36:50;0.77;;;0.50;;
21272;SDS011;36726;52.328;10.552;2022-09-09T08:39:21;5.82;;;1.13;;
21272;SDS011;36726;52.328;10.552;2022-09-09T08:50:05;1.92;;;0.80;;
21272;SDS011;36726;52.328;10.552;2022-09-09T08:52:51;1.48;;;0.80;;
21272;SDS011;36726;52.328;10.552;2022-09-09T08:56:06;0.88;;;0.60;;
21272;SDS011;36726;52.328;10.552;2022-09-09T08:58:16;2.33;;;0.70;;
21272;SDS011;36726;52.328;10.552;2022-09-09T09:06:47;1.42;;;0.60;;
21272;SDS011;36726;52.328;10.552;2022-09-09T09:09:22;1.05;;;0.68;;
21272;SDS011;36726;52.328;10.552;2022-09-09T09:11:56;2.22;;;1.00;;
21272;SDS011;36726;52.328;10.552;2022-09-09T09:14:34;3.03;;;0.70;;
21272;SDS011;36726;52.328;10.552;2022-09-09T09:20:05;0.80;;;0.55;;
21272;SDS011;36726;52.328;10.552;2022-09-09T09:22:44;1.63;;;0.93;;
21272;SDS011;36726;52.328;10.552;2022-09-09T09:25:19;2.53;;;0.98;;
21272;SDS011;36726;52.328;10.552;2022-09-09T09:27:57;1.10;;;0.60;;
21272;SDS011;36726;52.328;10.552;2022-09-09T09:30:39;3.35;;;1.10;;
21272;SDS011;36726;52.328;10.552;2022-09-09T09:33:18;1.98;;;0.80;;
21272;SDS011;36726;52.328;10.552;2022-09-09T09:35:51;1.92;;;0.90;;
21272;SDS011;36726;52.328;10.552;2022-09-09T09:38:23;2.63;;;0.80;;
21272;SDS011;36726;52.328;10.552;2022-09-09T09:41:11;1.65;;;0.80;;
21272;SDS011;36726;52.328;10.552;2022-09-09T09:43:40;3.80;;;0.90;;
21272;SDS011;36726;52.328;10.552;2022-09-09T09:46:18;2.00;;;0.85;;
21272;SDS011;36726;52.328;10.552;2022-09-09T09:49:11;2.22;;;0.80;;
21272;SDS011;36726;52.328;10.552;2022-09-09T09:51:38;1.27;;;0.60;;
21272;SDS011;36726;52.328;10.552;2022-09-09T09:54:13;3.22;;;0.93;;
21272;SDS011;36726;52.328;10.552;2022-09-09T09:56:50;1.13;;;0.60;;
21272;SDS011;36726;52.328;10.552;2022-09-09T09:59:34;3.83;;;0.73;;
21272;SDS011;36726;52.328;10.552;2022-09-09T10:02:16;1.58;;;0.70;;
21272;SDS011;36726;52.328;10.552;2022-09-09T10:05:00;1.00;;;0.55;;
21272;SDS011;36726;52.328;10.552;2022-09-09T10:07:34;1.33;;;0.50;;
21272;SDS011;36726;52.328;10.552;2022-09-09T10:10:00;1.20;;;0.68;;
21272;SDS011;36726;52.328;10.552;2022-09-09T10:15:32;1.48;;;0.60;;
21272;SDS011;36726;52.328;10.552;2022-09-09T10:23:39;3.35;;;1.00;;
21272;SDS011;36726;52.328;10.552;2022-09-09T10:26:32;1.02;;;0.60;;
21272;SDS011;36726;52.328;10.552;2022-09-09T10:32:20;1.92;;;0.80;;
21272;SDS011;36726;52.328;10.552;2022-09-09T10:40:38;1.38;;;0.70;;
21272;SDS011;36726;52.328;10.552;2022-09-09T10:43:13;2.63;;;0.75;;
21272;SDS011;36726;52.328;10.552;2022-09-09T10:52:14;1.25;;;0.60;;
21272;SDS011;36726;52.328;10.552;2022-09-09T10:54:56;3.90;;;0.80;;
21272;SDS011;36726;52.328;10.552;2022-09-09T11:00:06;1.38;;;0.70;;
21272;SDS011;36726;52.328;10.552;2022-09-09T11:02:42;1.90;;;1.00;;
21272;SDS011;36726;52.328;10.552;2022-09-09T11:05:17;2.25;;;0.98;;
21272;SDS011;36726;52.328;10.552;2022-09-09T11:07:56;3.92;;;1.48;;
21272;SDS011;36726;52.328;10.552;2022-09-09T11:10:29;2.90;;;1.08;;
21272;SDS011;36726;52.328;10.552;2022-09-09T11:13:23;3.80;;;1.20;;
21272;SDS011;36726;52.328;10.552;2022-09-09T11:16:05;3.72;;;1.25;;
21272;SDS011;36726;52.328;10.552;2022-09-09T11:18:38;3.08;;;0.95;;
21272;SDS011;36726;52.328;10.552;2022-09-09T11:21:09;1.10;;;0.88;;
21272;SDS011;36726;52.328;10.552;2022-09-09T11:23:55;1.98;;;1.00;;
21272;SDS011;36726;52.328;10.552;2022-09-09T11:26:36;3.35;;;1.00;;
21272;SDS011;36726;52.328;10.552;2022-09-09T11:37:57;1.58;;;0.93;;
21272;SDS011;36726;52.328;10.552;2022-09-09T11:40:44;1.70;;;0.93;;
21272;SDS011;36726;52.328;10.552;2022-09-09T11:43:21;1.65;;;0.90;;
21272;SDS011;36726;52.328;10.552;2022-09-09T11:45:52;2.80;;;0.93;;
21272;SDS011;36726;52.328;10.552;2022-09-09T11:48:36;2.88;;;0.75;;
21272;SDS011;36726;52.328;10.552;2022-09-09T11:53:56;11.80;;;1.02;;
21272;SDS011;36726;52.328;10.552;2022-09-09T11:59:16;2.22;;;1.02;;
21272;SDS011;36726;52.328;10.552;2022-09-09T12:01:45;3.90;;;0.90;;
21272;SDS011;36726;52.328;10.552;2022-09-09T12:04:16;2.05;;;0.73;;
21272;SDS011;36726;52.328;10.552;2022-09-09T12:06:59;4.45;;;0.95;;
21272;SDS011;36726;52.328;10.552;2022-09-09T12:17:23;1.55;;;0.80;;
21272;SDS011;36726;52.328;10.552;2022-09-09T12:20:00;2.08;;;0.90;;
21272;SDS011;36726;52.328;10.552;2022-09-09T12:22:49;3.38;;;0.77;;
21272;SDS011;36726;52.328;10.552;2022-09-09T12:25:33;1.75;;;0.70;;
21272;SDS011;36726;52.328;10.552;2022-09-09T12:31:25;1.67;;;0.60;;
21272;SDS011;36726;52.328;10.552;2022-09-09T12:34:08;1.52;;;1.00;;
21272;SDS011;36726;52.328;10.552;2022-09-09T12:36:37;1.63;;;0.65;;
21272;SDS011;36726;52.328;10.552;2022-09-09T12:39:12;3.65;;;0.93;;
21272;SDS011;36726;52.328;10.552;2022-09-09T12:41:52;2.80;;;0.80;;
21272;SDS011;36726;52.328;10.552;2022-09-09T12:44:23;1.02;;;0.80;;
21272;SDS011;36726;52.328;10.552;2022-09-09T12:46:54;3.00;;;0.82;;
21272;SDS011;36726;52.328;10.552;2022-09-09T12:51:51;2.22;;;0.88;;
21272;SDS011;36726;52.328;10.552;2022-09-09T12:54:18;2.75;;;0.60;;
21272;SDS011;36726;52.328;10.552;2022-09-09T12:56:46;2.97;;;0.82;;
21272;SDS011;36726;52.328;10.552;2022-09-09T12:59:21;2.05;;;0.50;;
21272;SDS011;36726;52.328;10.552;2022-09-09T13:01:56;2.40;;;0.80;;
21272;SDS011;36726;52.328;10.552;2022-09-09T13:04:24;1.73;;;0.90;;
21272;SDS011;36726;52.328;10.552;2022-09-09T13:06:51;1.63;;;0.80;;
21272;SDS011;36726;52.328;10.552;2022-09-09T13:09:18;3.05;;;0.93;;
21272;SDS011;36726;52.328;10.552;2022-09-09T13:11:47;1.65;;;0.80;;
21272;SDS011;36726;52.328;10.552;2022-09-09T13:14:26;1.02;;;0.60;;
21272;SDS011;36726;52.328;10.552;2022-09-09T13:16:59;1.60;;;0.85;;
21272;SDS011;36726;52.328;10.552;2022-09-09T13:19:29;2.40;;;0.90;;
21272;SDS011;36726;52.328;10.552;2022-09-09T13:22:10;1.33;;;0.60;;
21272;SDS011;36726;52.328;10.552;2022-09-09T13:24:39;1.13;;;0.60;;
21272;SDS011;36726;52.328;10.552;2022-09-09T13:27:26;1.65;;;0.75;;
21272;SDS011;36726;52.328;10.552;2022-09-09T13:29:56;1.30;;;0.50;;
21272;SDS011;36726;52.328;10.552;2022-09-09T13:32:23;3.15;;;0.50;;
21272;SDS011;36726;52.328;10.552;2022-09-09T13:34:59;3.38;;;0.68;;
21272;SDS011;36726;52.328;10.552;2022-09-09T13:37:34;0.90;;;0.52;;
21272;SDS011;36726;52.328;10.552;2022-09-09T13:40:04;0.80;;;0.50;;
21272;SDS011;36726;52.328;10.552;2022-09-09T13:42:33;2.75;;;0.70;;
21272;SDS011;36726;52.328;10.552;2022-09-09T13:45:03;1.73;;;0.80;;
21272;SDS011;36726;52.328;10.552;2022-09-09T13:47:34;1.05;;;0.50;;
21272;SDS011;36726;52.328;10.552;2022-09-09T13:50:21;3.38;;;0.73;;
21272;SDS011;36726;52.328;10.552;2022-09-09T13:52:53;1.45;;;0.50;;
21272;SDS011;36726;52.328;10.552;2022-09-09T13:55:21;0.93;;;0.50;;
21272;SDS011;36726;52.328;10.552;2022-09-09T13:57:52;1.25;;;0.50;;
21272;SDS011;36726;52.328;10.552;2022-09-09T14:00:20;2.05;;;0.40;;
21272;SDS011;36726;52.328;10.552;2022-09-09T14:02:48;0.70;;;0.47;;
21272;SDS011;36726;52.328;10.552;2022-09-09T14:05:15;0.68;;;0.30;;
21272;SDS011;36726;52.328;10.552;2022-09-09T14:07:43;4.63;;;0.60;;
21272;SDS011;36726;52.328;10.552;2022-09-09T14:10:11;0.80;;;0.43;;
21272;SDS011;36726;52.328;10.552;2022-09-09T14:12:38;1.08;;;0.52;;
21272;SDS011;36726;52.328;10.552;2022-09-09T14:15:05;1.92;;;0.73;;
21272;SDS011;36726;52.328;10.552;2022-09-09T14:17:33;2.08;;;0.52;;
21272;SDS011;36726;52.328;10.552;2022-09-09T14:20:05;1.65;;;0.70;;
21272;SDS011;36726;52.328;10.552;2022-09-09T14:22:35;7.22;;;0.57;;
21272;SDS011;36726;52.328;10.552;2022-09-09T14:25:02;3.65;;;0.65;;
21272;SDS011;36726;52.328;10.552;2022-09-09T14:27:29;1.95;;;0.70;;
21272;SDS011;36726;52.328;10.552;2022-09-09T14:29:56;0.73;;;0.50;;
21272;SDS011;36726;52.328;10.552;2022-09-09T14:32:23;1.60;;;0.57;;
21272;SDS011;36726;52.328;10.552;2022-09-09T14:34:50;2.25;;;0.32;;
21272;SDS011;36726;52.328;10.552;2022-09-09T14:37:17;1.10;;;0.63;;
21272;SDS011;36726;52.328;10.552;2022-09-09T14:39:44;0.95;;;0.60;;
21272;SDS011;36726;52.328;10.552;2022-09-09T14:42:10;0.60;;;0.50;;
21272;SDS011;36726;52.328;10.552;2022-09-09T14:44:37;1.98;;;0.50;;
21272;SDS011;36726;52.328;10.552;2022-09-09T14:47:05;0.77;;;0.60;;
21272;SDS011;36726;52.328;10.552;2022-09-09T14:49:34;1.77;;;0.47;;
21272;SDS011;36726;52.328;10.552;2022-09-09T14:52:01;1.58;;;0.88;;
21272;SDS011;36726;52.328;10.552;2022-09-09T14:54:29;1.10;;;0.40;;
21272;SDS011;36726;52.328;10.552;2022-09-09T14:56:56;2.45;;;0.80;;
21272;SDS011;36726;52.328;10.552;2022-09-09T14:59:22;1.88;;;0.70;;
21272;SDS011;36726;52.328;10.552;2022-09-09T15:01:49;2.05;;;0.70;;
21272;SDS011;36726;52.328;10.552;2022-09-09T15:04:16;1.92;;;0.70;;
21272;SDS011;36726;52.328;10.552;2022-09-09T15:06:46;3.65;;;0.85;;
21272;SDS011;36726;52.328;10.552;2022-09-09T15:09:14;1.90;;;0.40;;
21272;SDS011;36726;52.328;10.552;2022-09-09T15:11:41;1.10;;;0.50;;
21272;SDS011;36726;52.328;10.552;2022-09-09T15:14:09;3.00;;;0.55;;
21272;SDS011;36726;52.328;10.552;2022-09-09T15:16:37;0.93;;;0.60;;
21272;SDS011;36726;52.328;10.552;2022-09-09T15:19:05;2.50;;;0.80;;
21272;SDS011;36726;52.328;10.552;2022-09-09T15:21:33;1.75;;;0.73;;
21272;SDS011;36726;52.328;10.552;2022-09-09T15:24:01;1.30;;;0.70;;
21272;SDS011;36726;52.328;10.552;2022-09-09T15:26:27;1.48;;;0.68;;
21272;SDS011;36726;52.328;10.552;2022-09-09T15:28:54;0.90;;;0.50;;
21272;SDS011;36726;52.328;10.552;2022-09-09T15:31:22;1.48;;;0.70;;
21272;SDS011;36726;52.328;10.552;2022-09-09T15:33:51;1.75;;;0.68;;
21272;SDS011;36726;52.328;10.552;2022-09-09T15:36:21;1.27;;;0.55;;
21272;SDS011;36726;52.328;10.552;2022-09-09T15:38:49;1.20;;;0.60;;
21272;SDS011;36726;52.328;10.552;2022-09-09T15:41:17;0.68;;;0.55;;
21272;SDS011;36726;52.328;10.552;2022-09-09T15:43:47;2.78;;;0.73;;
21272;SDS011;36726;52.328;10.552;2022-09-09T15:48:57;3.67;;;0.73;;
21272;SDS011;36726;52.328;10.552;2022-09-09T15:51:28;1.45;;;0.68;;
21272;SDS011;36726;52.328;10.552;2022-09-09T15:54:08;2.15;;;0.80;;
21272;SDS011;36726;52.328;10.552;2022-09-09T15:56:39;0.57;;;0.47;;
21272;SDS011;36726;52.328;10.552;2022-09-09T15:59:06;0.85;;;0.40;;
21272;SDS011;36726;52.328;10.552;2022-09-09T16:01:32;2.50;;;0.63;;
21272;SDS011;36726;52.328;10.552;2022-09-09T16:04:00;0.70;;;0.50;;
21272;SDS011;36726;52.328;10.552;2022-09-09T16:06:27;1.15;;;0.55;;
21272;SDS011;36726;52.328;10.552;2022-09-09T16:08:55;1.33;;;0.60;;
21272;SDS011;36726;52.328;10.552;2022-09-09T16:11:29;1.05;;;0.50;;
21272;SDS011;36726;52.328;10.552;2022-09-09T16:13:57;2.30;;;0.68;;
21272;SDS011;36726;52.328;10.552;2022-09-09T16:16:25;2.08;;;0.60;;
21272;SDS011;36726;52.328;10.552;2022-09-09T16:18:54;1.67;;;0.65;;
21272;SDS011;36726;52.328;10.552;2022-09-09T16:21:29;0.73;;;0.47;;
21272;SDS011;36726;52.328;10.552;2022-09-09T16:23:58;3.55;;;0.60;;
21272;SDS011;36726;52.328;10.552;2022-09-09T16:26:26;1.25;;;0.68;;
21272;SDS011;36726;52.328;10.552;2022-09-09T16:28:54;1.08;;;0.50;;
21272;SDS011;36726;52.328;10.552;2022-09-09T16:31:21;1.70;;;0.45;;
21272;SDS011;36726;52.328;10.552;2022-09-09T16:33:49;1.40;;;0.70;;
21272;SDS011;36726;52.328;10.552;2022-09-09T16:36:21;1.08;;;0.50;;
21272;SDS011;36726;52.328;10.552;2022-09-09T16:38:55;1.20;;;0.68;;
21272;SDS011;36726;52.328;10.552;2022-09-09T16:41:24;1.20;;;0.45;;
21272;SDS011;36726;52.328;10.552;2022-09-09T16:43:59;1.75;;;0.47;;
21272;SDS011;36726;52.328;10.552;2022-09-09T16:46:29;1.80;;;0.50;;
21272;SDS011;36726;52.328;10.552;2022-09-09T16:48:58;1.00;;;0.52;;
21272;SDS011;36726;52.328;10.552;2022-09-09T16:51:26;1.85;;;0.32;;
21272;SDS011;36726;52.328;10.552;2022-09-09T16:53:55;0.70;;;0.60;;
21272;SDS011;36726;52.328;10.552;2022-09-09T16:56:25;1.50;;;0.73;;